Patrice Mcallister — WDG2567 — position and weather

sailwx.info

Track history (hours):
 
Tides and Currents Weather Stations Pressure Air Temp Water Temp Dewpoint Dewpoint Depression Visibility Wind Speed Wind Dir Waves Ship Positions

Patrice Mcallister

Owner: McAllister Towing & Transportation Co. Inc., Staten Island, NY. More information available from US FCC via Universal Licensing System and Coast Guard Vessel Documentation Center.

Last reported at 2017-Oct-10 01:01 UTC. Time now 2017-Oct-18 05:33 UTC.
Position N 25°26' W 079°57'.
Warning: this ship's position is 8 days out of date.

Length 33 m; draft 3.7 m.

Type: Towing. MMSI: 367516950.

Date/timePositionNaut miles runAvg speedWind from/ knotsBaromVisibWave heightAir tempDewpointWater temp
2017-Oct-10 01:01N 25°26' W 079°57'2 5.5
2017-Oct-10 00:40N 25°28' W 079°57'1 5.5
2017-Oct-10 00:30N 25°28' W 079°57'3 5.6
2017-Oct-10 00:00N 25°31' W 079°58'3 5.6
2017-Oct-09 23:30N 25°34' W 079°59'3 6.0
2017-Oct-09 23:00N 25°37' W 080°00'3 6.3
2017-Oct-09 22:30N 25°40' W 080°02'4 7.1
2017-Oct-09 22:00N 25°43' W 080°03'4 7.4
2017-Oct-09 21:30N 25°46' W 080°04'4 7.5
2017-Oct-09 21:00N 25°50' W 080°04'4 7.4
2017-Oct-09 20:30N 25°54' W 080°03'4 7.4
2017-Oct-09 20:00N 25°57' W 080°03'4 7.4
2017-Oct-09 19:30N 26°01' W 080°03'4 7.4
2017-Oct-09 19:00N 26°05' W 080°02'4 7.5
2017-Oct-09 18:25N 26°09' W 080°02'4 7.7
2017-Oct-09 17:52N 26°13' W 080°01'20 7.9
2017-Oct-09 15:21N 26°33' W 080°00'16 6.9
2017-Oct-09 13:00N 26°50' W 079°60'3 6.4
2017-Oct-09 12:30N 26°53' W 079°60'3 6.5
2017-Oct-09 12:00N 26°56' W 079°59'3 6.7
2017-Oct-09 11:30N 26°59' W 079°59'3 6.6
2017-Oct-09 11:00N 27°03' W 079°59'  
2017-Oct-06 12:21N 31°49' W 080°41'2 5.5
2017-Oct-06 12:00N 31°51' W 080°40'3 5.8
2017-Oct-06 11:30N 31°52' W 080°37'21 6.0
2017-Oct-06 07:57N 32°02' W 080°14'3 6.2
2017-Oct-06 07:26N 32°04' W 080°11'3 6.1
2017-Oct-06 06:58N 32°05' W 080°08'  
2017-Oct-03 02:14N 34°25' W 076°41'1 4.8
2017-Oct-03 01:58N 34°25' W 076°39'2 4.4
2017-Oct-03 01:30N 34°23' W 076°37'3 4.4
2017-Oct-03 00:55N 34°22' W 076°35'2 4.1
2017-Oct-03 00:29N 34°21' W 076°33'  
Track history (hours):
 
Tides and Currents Weather Stations Pressure Air Temp Water Temp Dewpoint Dewpoint Depression Visibility Wind Speed Wind Dir Waves Ship Positions

Patrice Mcallister

Owner: McAllister Towing & Transportation Co. Inc., Staten Island, NY. More information available from US FCC via Universal Licensing System and Coast Guard Vessel Documentation Center.

Last reported at 2017-Oct-10 01:01 UTC. Time now 2017-Oct-18 05:33 UTC.
Position N 25°26' W 079°57'.
Warning: this ship's position is 8 days out of date.

Length 33 m; draft 3.7 m.

Type: Towing. MMSI: 367516950.

Date/timePositionNaut miles runAvg speedWind from/ knotsBaromVisibWave heightAir tempDewpointWater temp
2017-Oct-10 01:01N 25°26' W 079°57'2 5.5
2017-Oct-10 00:40N 25°28' W 079°57'1 5.5
2017-Oct-10 00:30N 25°28' W 079°57'3 5.6
2017-Oct-10 00:00N 25°31' W 079°58'3 5.6
2017-Oct-09 23:30N 25°34' W 079°59'3 6.0
2017-Oct-09 23:00N 25°37' W 080°00'3 6.3
2017-Oct-09 22:30N 25°40' W 080°02'4 7.1
2017-Oct-09 22:00N 25°43' W 080°03'4 7.4
2017-Oct-09 21:30N 25°46' W 080°04'4 7.5
2017-Oct-09 21:00N 25°50' W 080°04'4 7.4
2017-Oct-09 20:30N 25°54' W 080°03'4 7.4
2017-Oct-09 20:00N 25°57' W 080°03'4 7.4
2017-Oct-09 19:30N 26°01' W 080°03'4 7.4
2017-Oct-09 19:00N 26°05' W 080°02'4 7.5
2017-Oct-09 18:25N 26°09' W 080°02'4 7.7
2017-Oct-09 17:52N 26°13' W 080°01'20 7.9
2017-Oct-09 15:21N 26°33' W 080°00'16 6.9
2017-Oct-09 13:00N 26°50' W 079°60'3 6.4
2017-Oct-09 12:30N 26°53' W 079°60'3 6.5
2017-Oct-09 12:00N 26°56' W 079°59'3 6.7
2017-Oct-09 11:30N 26°59' W 079°59'3 6.6
2017-Oct-09 11:00N 27°03' W 079°59'  
2017-Oct-06 12:21N 31°49' W 080°41'2 5.5
2017-Oct-06 12:00N 31°51' W 080°40'3 5.8
2017-Oct-06 11:30N 31°52' W 080°37'21 6.0
2017-Oct-06 07:57N 32°02' W 080°14'3 6.2
2017-Oct-06 07:26N 32°04' W 080°11'3 6.1
2017-Oct-06 06:58N 32°05' W 080°08'  
2017-Oct-03 02:14N 34°25' W 076°41'1 4.8
2017-Oct-03 01:58N 34°25' W 076°39'2 4.4
2017-Oct-03 01:30N 34°23' W 076°37'3 4.4
2017-Oct-03 00:55N 34°22' W 076°35'2 4.1
2017-Oct-03 00:29N 34°21' W 076°33'  

Dump ship's entire track history